Time;durP1;ratioP1;P1;durP2;ratioP2;P2;SDS_P1;SDS_P2;PMS_P1;PMS_P2;Temp;Humidity;BMP_temperature;BMP_pressure;BME280_temperature;BME280_humidity;BME280_pressure;Samples;Min_cycle;Max_cycle;Signal;HPM_P1;HPM_P2
2021/05/26 00:00:31;;;;;;;1.23;1.03;;;13.90;93.50;;;;;;5073330;28;20632;-49
2021/05/26 00:02:57;;;;;;;4.70;1.33;;;14.10;93.50;;;;;;5073373;28;20177;-49
2021/05/26 00:05:22;;;;;;;2.03;0.80;;;14.10;93.70;;;;;;5072475;28;20475;-49
2021/05/26 00:07:48;;;;;;;1.47;1.03;;;14.10;93.80;;;;;;5073817;28;20199;-48
2021/05/26 00:10:14;;;;;;;1.33;1.10;;;14.10;93.90;;;;;;5074096;28;20207;-49
2021/05/26 00:12:40;;;;;;;2.27;1.40;;;14.20;93.90;;;;;;5073003;28;20168;-49
2021/05/26 00:15:06;;;;;;;2.13;1.07;;;14.30;94.10;;;;;;5073034;28;20436;-49
2021/05/26 00:17:32;;;;;;;2.57;1.20;;;14.00;94.50;;;;;;5073252;28;20183;-49
2021/05/26 00:19:59;;;;;;;2.53;1.23;;;14.00;94.70;;;;;;5072679;28;20410;-49
2021/05/26 00:22:26;;;;;;;2.10;1.47;;;14.10;94.80;;;;;;5073103;28;20173;-49
2021/05/26 00:24:52;;;;;;;4.97;1.50;;;14.00;95.10;;;;;;5072727;28;20447;-49
2021/05/26 00:27:17;;;;;;;2.23;1.27;;;13.90;95.30;;;;;;5072303;28;20423;-48
2021/05/26 00:29:44;;;;;;;2.23;1.50;;;14.10;95.40;;;;;;5054726;28;20180;-48
2021/05/26 00:32:09;;;;;;;1.93;1.03;;;14.20;95.40;;;;;;5073352;28;20171;-48
2021/05/26 00:34:35;;;;;;;2.37;1.20;;;14.10;95.50;;;;;;5072170;28;20462;-49
2021/05/26 00:37:01;;;;;;;2.57;0.90;;;14.10;95.90;;;;;;5072968;28;20205;-49
2021/05/26 00:39:26;;;;;;;2.33;1.10;;;14.20;95.70;;;;;;5072982;28;20589;-48
2021/05/26 00:41:52;;;;;;;1.70;1.00;;;14.10;95.80;;;;;;5072723;28;21045;-48
2021/05/26 00:44:17;;;;;;;2.87;1.00;;;14.10;95.90;;;;;;5076027;28;20196;-49
2021/05/26 00:46:44;;;;;;;2.47;1.03;;;14.20;95.80;;;;;;5076367;28;20605;-49
2021/05/26 00:49:10;;;;;;;1.67;1.03;;;14.40;95.60;;;;;;5076295;28;20255;-47
2021/05/26 00:51:36;;;;;;;2.87;1.10;;;14.30;96.00;;;;;;5076743;28;20537;-49
2021/05/26 00:54:02;;;;;;;2.03;0.97;;;14.40;95.80;;;;;;5075342;28;20479;-50
2021/05/26 00:56:28;;;;;;;2.30;1.13;;;14.40;95.60;;;;;;5075974;28;20484;-51
2021/05/26 00:58:54;;;;;;;2.30;1.30;;;14.50;96.00;;;;;;5076194;28;20901;-49
2021/05/26 01:01:19;;;;;;;2.57;1.20;;;14.50;96.00;;;;;;5076662;28;20501;-49
2021/05/26 01:03:45;;;;;;;4.00;1.37;;;14.70;95.90;;;;;;5075204;28;20207;-49
2021/05/26 01:06:11;;;;;;;4.23;1.37;;;14.70;96.00;;;;;;5075696;28;20193;-46
2021/05/26 01:08:37;;;;;;;2.27;1.20;;;14.70;96.10;;;;;;5075975;28;20478;-48
2021/05/26 01:11:04;;;;;;;2.30;1.47;;;14.80;95.90;;;;;;5076460;28;20651;-49
2021/05/26 01:13:30;;;;;;;3.53;0.87;;;14.80;96.00;;;;;;5075710;28;20209;-49
2021/05/26 01:15:55;;;;;;;1.37;0.93;;;14.80;96.10;;;;;;5075792;28;20502;-48
2021/05/26 01:18:23;;;;;;;1.33;0.90;;;14.70;96.10;;;;;;5075801;28;20409;-49
2021/05/26 01:20:49;;;;;;;1.40;1.03;;;14.80;96.50;;;;;;5075818;28;20184;-49
2021/05/26 01:23:18;;;;;;;2.10;1.13;;;14.70;97.90;;;;;;5075808;28;20542;-50
2021/05/26 01:25:52;;;;;;;2.20;0.97;;;14.60;98.10;;;;;;5075477;28;20474;-50
2021/05/26 01:28:18;;;;;;;1.40;0.90;;;14.30;98.10;;;;;;5074453;28;20405;-51
2021/05/26 01:30:44;;;;;;;4.47;1.50;;;13.90;98.40;;;;;;5055442;28;20410;-49
2021/05/26 01:33:10;;;;;;;1.73;0.87;;;13.60;99.90;;;;;;5055508;28;20460;-49
2021/05/26 01:35:39;;;;;;;1.50;1.20;;;13.50;99.90;;;;;;5072090;23;20445;-56
2021/05/26 01:38:05;;;;;;;2.60;1.30;;;13.50;99.90;;;;;;5056956;28;20171;-56
2021/05/26 01:40:30;;;;;;;3.00;1.80;;;13.40;99.90;;;;;;5073855;28;20911;-54
2021/05/26 01:42:56;;;;;;;1.80;1.37;;;13.20;99.90;;;;;;5074812;28;20767;-55
2021/05/26 01:45:22;;;;;;;4.20;1.43;;;13.30;99.90;;;;;;5074625;28;20186;-55
2021/05/26 01:47:50;;;;;;;2.10;1.10;;;13.40;99.90;;;;;;5074616;28;20158;-55
2021/05/26 01:50:21;;;;;;;1.93;1.10;;;13.40;99.90;;;;;;5054500;28;20666;-56
2021/05/26 01:53:03;;;;;;;3.43;1.47;;;13.30;99.90;;;;;;5054674;28;20876;-55
2021/05/26 01:55:29;;;;;;;3.63;1.10;;;13.30;99.90;;;;;;5053868;28;20377;-55
2021/05/26 01:57:55;;;;;;;3.80;1.40;;;13.30;99.90;;;;;;5055086;28;20814;-51
2021/05/26 02:00:21;;;;;;;1.63;0.97;;;13.30;99.90;;;;;;5054469;28;20250;-50
2021/05/26 02:02:47;;;;;;;5.50;1.20;;;13.40;99.90;;;;;;5068015;28;20173;-56
2021/05/26 02:05:14;;;;;;;1.80;1.17;;;13.50;99.90;;;;;;5074025;28;20296;-55
2021/05/26 02:07:40;;;;;;;1.17;0.83;;;13.50;99.90;;;;;;5070447;28;20438;-54
2021/05/26 02:10:09;;;;;;;2.87;1.20;;;13.60;99.90;;;;;;5062152;28;20555;-56
2021/05/26 02:12:39;;;;;;;0.90;0.80;;;13.50;99.90;;;;;;5054515;28;20155;-54
2021/05/26 02:15:07;;;;;;;1.83;0.93;;;13.40;99.90;;;;;;5053847;28;20490;-56
2021/05/26 02:17:33;;;;;;;2.60;1.03;;;13.40;99.90;;;;;;5036609;28;20486;-56
2021/05/26 02:19:59;;;;;;;2.30;1.03;;;13.40;99.90;;;;;;5053900;28;20869;-54
2021/05/26 02:22:24;;;;;;;1.20;0.80;;;13.10;99.90;;;;;;5054054;28;20542;-55
2021/05/26 02:24:50;;;;;;;3.73;1.20;;;13.20;99.90;;;;;;5070480;28;20299;-53
2021/05/26 02:27:16;;;;;;;2.10;1.00;;;13.10;99.90;;;;;;5074268;28;20177;-56
2021/05/26 02:29:43;;;;;;;1.77;1.03;;;12.80;99.90;;;;;;5073891;28;20175;-57
2021/05/26 02:32:09;;;;;;;2.10;1.10;;;12.80;99.90;;;;;;5073905;28;20542;-56
2021/05/26 02:34:35;;;;;;;2.67;1.10;;;12.90;99.90;;;;;;5073466;28;20405;-57
2021/05/26 02:37:02;;;;;;;3.37;1.17;;;12.90;99.90;;;;;;5065475;28;20456;-55
2021/05/26 02:39:28;;;;;;;1.60;0.90;;;12.80;99.90;;;;;;5062711;28;20481;-56
2021/05/26 02:41:54;;;;;;;3.87;1.50;;;12.80;99.90;;;;;;5073906;28;20408;-52
2021/05/26 02:44:20;;;;;;;3.40;1.10;;;12.90;99.90;;;;;;5073555;28;20188;-53
2021/05/26 02:46:47;;;;;;;1.87;1.00;;;13.10;99.90;;;;;;5073780;28;20190;-52
2021/05/26 02:49:13;;;;;;;4.90;1.50;;;13.10;99.90;;;;;;5073641;28;20419;-55
2021/05/26 02:51:39;;;;;;;1.30;0.83;;;13.00;99.90;;;;;;5073516;28;20403;-53
2021/05/26 02:54:05;;;;;;;3.00;1.30;;;13.00;99.90;;;;;;5073555;28;20170;-55
2021/05/26 02:56:32;;;;;;;1.70;0.93;;;12.90;99.90;;;;;;5073750;28;20188;-52
2021/05/26 02:58:57;;;;;;;2.90;1.33;;;13.10;99.90;;;;;;5073939;28;20491;-56
2021/05/26 03:01:23;;;;;;;1.87;1.10;;;13.20;99.90;;;;;;5073178;28;20487;-56
2021/05/26 03:03:49;;;;;;;2.53;1.27;;;13.40;99.90;;;;;;5073360;28;20208;-56
2021/05/26 03:06:15;;;;;;;2.00;1.10;;;13.20;99.90;;;;;;5072075;28;20182;-56
2021/05/26 03:08:40;;;;;;;4.10;1.63;;;13.00;99.90;;;;;;5072703;28;20438;-54
2021/05/26 03:11:06;;;;;;;3.83;1.27;;;12.70;99.90;;;;;;5073292;28;20166;-56
2021/05/26 03:13:32;;;;;;;1.10;1.00;;;12.70;99.90;;;;;;5073298;28;20597;-56
2021/05/26 03:15:58;;;;;;;2.40;1.40;;;12.70;99.90;;;;;;5072970;28;20599;-56
2021/05/26 03:18:24;;;;;;;2.50;1.27;;;12.60;99.90;;;;;;5073271;28;20459;-56
2021/05/26 03:20:51;;;;;;;2.07;1.10;;;12.60;99.90;;;;;;5073132;28;20162;-56
2021/05/26 03:23:18;;;;;;;2.70;1.13;;;12.90;99.90;;;;;;5072924;28;20648;-54
2021/05/26 03:25:47;;;;;;;3.77;1.67;;;12.80;99.90;;;;;;5053458;28;20452;-54
2021/05/26 03:28:14;;;;;;;2.00;1.80;;;12.90;99.90;;;;;;5035995;28;20461;-52
2021/05/26 03:30:39;;;;;;;4.07;1.03;;;12.60;99.90;;;;;;5052665;28;20450;-55
2021/05/26 03:33:06;;;;;;;2.10;0.87;;;12.70;99.90;;;;;;5053256;28;20433;-55
2021/05/26 03:35:34;;;;;;;2.40;1.17;;;12.60;99.90;;;;;;5052693;28;20190;-51
2021/05/26 03:38:00;;;;;;;2.37;1.50;;;12.70;99.90;;;;;;5071664;28;20824;-56
2021/05/26 03:40:26;;;;;;;3.10;1.50;;;12.70;99.90;;;;;;5073419;28;20447;-54
2021/05/26 03:42:51;;;;;;;2.73;1.20;;;12.70;99.90;;;;;;5072872;28;20428;-54
2021/05/26 03:45:17;;;;;;;1.90;1.37;;;12.70;99.90;;;;;;5071866;28;20202;-56
2021/05/26 03:47:43;;;;;;;1.90;1.13;;;12.70;99.90;;;;;;5072842;28;20525;-55
2021/05/26 03:50:13;;;;;;;1.30;1.00;;;12.70;99.90;;;;;;5072825;28;20173;-54
2021/05/26 03:52:43;;;;;;;5.17;1.50;;;12.70;99.90;;;;;;5072470;28;20166;-53
2021/05/26 03:55:12;;;;;;;1.63;1.30;;;12.70;99.90;;;;;;5072826;28;20420;-53
2021/05/26 03:57:39;;;;;;;2.03;1.20;;;12.70;99.90;;;;;;5072738;28;20400;-54
2021/05/26 04:00:10;;;;;;;2.67;1.33;;;12.60;99.90;;;;;;5073037;28;20412;-56
2021/05/26 04:02:36;;;;;;;3.60;1.57;;;12.50;99.90;;;;;;5072440;28;20470;-53
2021/05/26 04:05:04;;;;;;;1.57;1.00;;;12.60;99.90;;;;;;5072568;28;20953;-50
2021/05/26 04:07:29;;;;;;;1.83;1.53;;;12.50;99.90;;;;;;5072627;28;20423;-53
2021/05/26 04:09:55;;;;;;;4.13;1.40;;;12.50;99.90;;;;;;5072615;28;20400;-52
2021/05/26 04:12:21;;;;;;;3.83;1.40;;;12.30;99.90;;;;;;5072679;28;20623;-52
2021/05/26 04:14:47;;;;;;;3.40;1.53;;;12.30;99.90;;;;;;5054652;28;20174;-56
2021/05/26 04:17:12;;;;;;;2.30;1.27;;;12.40;99.90;;;;;;5072766;28;20432;-55
2021/05/26 04:19:38;;;;;;;3.80;1.03;;;12.50;99.90;;;;;;5075881;28;20177;-55
2021/05/26 04:22:04;;;;;;;2.40;1.50;;;12.40;99.90;;;;;;5076302;28;20652;-55
2021/05/26 04:24:30;;;;;;;3.40;1.67;;;12.40;99.90;;;;;;5076248;28;20185;-56
2021/05/26 04:26:55;;;;;;;2.30;1.60;;;12.30;99.90;;;;;;5076367;28;20434;-53
2021/05/26 04:29:21;;;;;;;1.60;1.30;;;12.30;99.90;;;;;;5076660;28;20171;-56
2021/05/26 04:31:47;;;;;;;1.50;1.10;;;12.40;99.90;;;;;;5076231;28;20162;-56
2021/05/26 04:34:16;;;;;;;2.07;0.97;;;12.50;99.90;;;;;;5075188;28;20178;-49
2021/05/26 04:36:42;;;;;;;4.23;1.50;;;12.50;99.90;;;;;;5075904;28;20463;-53
2021/05/26 04:39:08;;;;;;;5.60;1.40;;;12.50;99.90;;;;;;5075963;28;20404;-54
2021/05/26 04:41:34;;;;;;;1.50;1.07;;;12.70;99.90;;;;;;5075997;28;20603;-54
2021/05/26 04:43:59;;;;;;;1.30;1.20;;;12.70;99.90;;;;;;5075861;28;20469;-54
2021/05/26 04:46:25;;;;;;;1.80;1.27;;;12.70;99.90;;;;;;5076089;28;20219;-51
2021/05/26 04:48:50;;;;;;;1.63;1.00;;;12.70;99.90;;;;;;5074995;28;20517;-52
2021/05/26 04:51:16;;;;;;;2.90;1.40;;;12.70;99.90;;;;;;5076339;28;20170;-53
2021/05/26 04:53:41;;;;;;;5.07;1.73;;;12.60;99.90;;;;;;5075731;28;20175;-55
2021/05/26 04:56:07;;;;;;;5.63;1.80;;;12.50;99.90;;;;;;5075547;28;20189;-55
2021/05/26 04:58:33;;;;;;;1.93;1.20;;;12.40;99.90;;;;;;5075944;28;20193;-55
2021/05/26 05:00:58;;;;;;;3.13;1.30;;;12.30;99.90;;;;;;5076254;28;20171;-55
2021/05/26 05:03:24;;;;;;;3.37;1.40;;;12.40;99.90;;;;;;5075005;28;20248;-53
2021/05/26 05:05:50;;;;;;;3.10;1.60;;;12.40;99.90;;;;;;5074686;28;20208;-54
2021/05/26 05:08:15;;;;;;;2.20;1.50;;;12.30;99.90;;;;;;5075473;28;20170;-54
2021/05/26 05:10:41;;;;;;;2.40;1.50;;;12.40;99.90;;;;;;5075371;28;20716;-55
2021/05/26 05:13:06;;;;;;;3.67;1.37;;;12.40;99.90;;;;;;5075590;28;20186;-55
2021/05/26 05:15:32;;;;;;;4.80;1.67;;;12.40;99.90;;;;;;5074790;28;20213;-51
2021/05/26 05:17:58;;;;;;;2.33;1.60;;;12.20;99.90;;;;;;5074709;28;20180;-55
2021/05/26 05:20:24;;;;;;;3.90;1.47;;;12.30;99.90;;;;;;5075238;28;20397;-50
2021/05/26 05:22:51;;;;;;;2.70;1.57;;;12.20;99.90;;;;;;5075228;28;20181;-53
2021/05/26 05:25:17;;;;;;;3.00;1.60;;;12.20;99.90;;;;;;5075418;28;20715;-55
2021/05/26 05:27:43;;;;;;;2.27;1.17;;;12.30;99.90;;;;;;5075430;28;20405;-54
2021/05/26 05:30:10;;;;;;;2.30;1.20;;;12.30;99.90;;;;;;5069084;28;20463;-54
2021/05/26 05:32:36;;;;;;;3.57;1.37;;;12.20;99.90;;;;;;5063480;28;20405;-54
2021/05/26 05:35:03;;;;;;;2.90;1.40;;;12.30;99.90;;;;;;5055165;28;20415;-53
2021/05/26 05:37:28;;;;;;;4.28;1.88;;;12.30;99.90;;;;;;5054223;28;20857;-55
2021/05/26 05:39:54;;;;;;;5.07;1.60;;;12.50;99.90;;;;;;5055330;28;20258;-55
2021/05/26 05:42:20;;;;;;;2.43;1.77;;;12.60;99.90;;;;;;5054677;28;20183;-51
2021/05/26 05:44:46;;;;;;;1.97;1.27;;;12.40;99.90;;;;;;5063708;28;20658;-54
2021/05/26 05:47:12;;;;;;;3.10;1.63;;;12.40;99.90;;;;;;5074149;28;20273;-55
2021/05/26 05:49:38;;;;;;;2.23;1.53;;;12.40;99.90;;;;;;5074520;28;20396;-55
2021/05/26 05:52:04;;;;;;;4.70;1.20;;;12.50;99.90;;;;;;5073551;28;20423;-55
2021/05/26 05:54:30;;;;;;;1.80;1.10;;;12.60;99.90;;;;;;5074482;28;20171;-54
2021/05/26 05:56:55;;;;;;;2.30;1.43;;;12.50;99.90;;;;;;5074323;28;20425;-55
2021/05/26 05:59:21;;;;;;;2.53;1.57;;;12.60;99.90;;;;;;5074398;28;20181;-54
2021/05/26 06:01:46;;;;;;;2.50;1.43;;;12.70;99.90;;;;;;5074174;28;20618;-55
2021/05/26 06:04:12;;;;;;;2.60;1.50;;;12.80;99.90;;;;;;5074306;28;20558;-50
2021/05/26 06:06:37;;;;;;;3.90;1.73;;;13.00;99.90;;;;;;5073925;28;20190;-54
2021/05/26 06:09:04;;;;;;;4.60;2.33;;;13.10;99.90;;;;;;5073631;28;20173;-54
2021/05/26 06:11:33;;;;;;;3.50;1.53;;;13.20;99.90;;;;;;5074079;28;20165;-55
2021/05/26 06:14:00;;;;;;;4.30;1.70;;;13.20;99.90;;;;;;5074025;28;20416;-54
2021/05/26 06:16:26;;;;;;;3.40;1.43;;;13.40;99.90;;;;;;5073792;28;20438;-55
2021/05/26 06:18:52;;;;;;;2.10;1.20;;;13.40;99.90;;;;;;5074240;28;20400;-55
2021/05/26 06:21:18;;;;;;;2.67;1.43;;;13.40;99.90;;;;;;5073952;28;20211;-54
2021/05/26 06:23:44;;;;;;;3.70;1.30;;;13.60;99.90;;;;;;5074073;28;20677;-52
2021/05/26 06:26:09;;;;;;;1.93;1.47;;;13.40;99.90;;;;;;5073528;28;20425;-56
2021/05/26 06:28:35;;;;;;;2.23;1.33;;;13.20;99.90;;;;;;5074072;28;20180;-54
2021/05/26 06:31:01;;;;;;;4.17;1.43;;;13.30;99.90;;;;;;5073714;28;20555;-53
2021/05/26 06:33:26;;;;;;;4.23;2.00;;;13.40;99.90;;;;;;5073050;28;20165;-55
2021/05/26 06:35:52;;;;;;;3.10;1.97;;;13.30;99.90;;;;;;5072518;28;20570;-55
2021/05/26 06:38:18;;;;;;;1.60;1.30;;;13.10;99.90;;;;;;5073993;28;20193;-56
2021/05/26 06:40:44;;;;;;;2.57;1.67;;;12.90;99.90;;;;;;5073653;28;20905;-55
2021/05/26 06:43:09;;;;;;;3.53;1.47;;;13.10;99.90;;;;;;5073873;28;20170;-55
2021/05/26 06:45:35;;;;;;;3.83;1.40;;;13.20;99.90;;;;;;5073619;28;20961;-56
2021/05/26 06:48:01;;;;;;;3.00;1.80;;;13.00;99.90;;;;;;5074216;28;20197;-51
2021/05/26 06:50:26;;;;;;;5.13;2.23;;;13.00;99.90;;;;;;5072928;28;20637;-52
2021/05/26 06:52:52;;;;;;;2.40;1.57;;;13.00;99.90;;;;;;5073577;28;20652;-52
2021/05/26 06:55:18;;;;;;;2.50;1.30;;;12.80;99.90;;;;;;5073623;28;20536;-51
2021/05/26 06:57:45;;;;;;;3.50;1.90;;;12.90;99.90;;;;;;5072527;28;20174;-53
2021/05/26 07:00:11;;;;;;;3.30;1.43;;;13.00;99.90;;;;;;5073416;28;20408;-54
2021/05/26 07:02:36;;;;;;;3.07;1.43;;;13.10;99.90;;;;;;5072996;28;20408;-54
2021/05/26 07:05:03;;;;;;;1.90;1.60;;;13.30;99.90;;;;;;5072654;28;20451;-55
2021/05/26 07:07:28;;;;;;;3.33;1.77;;;13.70;99.90;;;;;;5073315;28;20178;-55
2021/05/26 07:09:54;;;;;;;2.70;1.90;;;13.90;99.90;;;;;;5073234;28;20943;-55
2021/05/26 07:12:19;;;;;;;5.33;2.00;;;14.00;99.90;;;;;;5072345;28;20189;-54
2021/05/26 07:14:46;;;;;;;5.90;1.90;;;14.10;99.90;;;;;;5073375;28;20225;-54
2021/05/26 07:17:12;;;;;;;2.23;1.60;;;13.90;99.90;;;;;;5073111;28;20195;-54
2021/05/26 07:19:38;;;;;;;4.67;1.60;;;13.90;99.90;;;;;;5073252;28;20499;-52
2021/05/26 07:22:03;;;;;;;3.37;1.73;;;14.10;99.90;;;;;;5055090;28;20277;-55
2021/05/26 07:24:29;;;;;;;2.07;1.43;;;14.10;99.90;;;;;;5073021;28;20196;-54
2021/05/26 07:26:54;;;;;;;6.33;1.70;;;14.40;99.90;;;;;;5072860;28;20274;-54
2021/05/26 07:29:20;;;;;;;2.20;2.00;;;14.30;99.90;;;;;;5073317;28;20688;-54
2021/05/26 07:31:45;;;;;;;6.97;2.03;;;14.10;99.90;;;;;;5073238;28;20168;-54
2021/05/26 07:34:11;;;;;;;2.90;1.40;;;14.20;99.90;;;;;;5073138;28;20169;-55
2021/05/26 07:36:37;;;;;;;3.87;2.10;;;14.00;99.90;;;;;;5089055;22;20218;-49
2021/05/26 07:39:04;;;;;;;5.20;2.17;;;13.90;99.90;;;;;;5053707;28;20192;-50
2021/05/26 07:41:30;;;;;;;2.53;2.07;;;13.60;99.90;;;;;;5053625;28;20209;-49
2021/05/26 07:43:56;;;;;;;5.73;2.20;;;13.70;99.90;;;;;;5053076;28;20441;-49
2021/05/26 07:46:21;;;;;;;2.77;1.90;;;13.90;99.90;;;;;;5052957;28;20196;-49
2021/05/26 07:48:51;;;;;;;4.77;1.90;;;13.70;99.90;;;;;;5053520;28;20210;-55
2021/05/26 07:51:18;;;;;;;4.03;2.50;;;13.70;99.90;;;;;;5053205;28;20168;-54
2021/05/26 07:53:43;;;;;;;3.63;2.30;;;13.70;99.90;;;;;;5056368;28;20406;-53
2021/05/26 07:56:09;;;;;;;5.63;2.40;;;13.70;99.90;;;;;;5057086;28;20435;-55
2021/05/26 07:58:35;;;;;;;1.83;1.73;;;13.80;99.90;;;;;;5056776;28;20193;-56
2021/05/26 08:01:00;;;;;;;5.10;3.13;;;13.90;99.90;;;;;;5056886;28;20288;-54
2021/05/26 08:03:26;;;;;;;2.73;1.90;;;13.90;99.90;;;;;;5057177;28;20198;-52
2021/05/26 08:05:52;;;;;;;5.10;2.17;;;13.90;99.90;;;;;;5056828;28;20167;-55
2021/05/26 08:08:17;;;;;;;4.23;1.80;;;13.90;99.90;;;;;;5057410;28;20580;-56
2021/05/26 08:10:43;;;;;;;6.00;2.57;;;13.90;99.90;;;;;;5057055;28;20174;-53
2021/05/26 08:13:09;;;;;;;4.30;2.20;;;13.70;99.90;;;;;;5056448;28;20184;-55
2021/05/26 08:15:35;;;;;;;4.07;1.87;;;13.90;99.90;;;;;;5056529;28;20170;-55
2021/05/26 08:18:01;;;;;;;4.27;1.70;;;13.90;99.90;;;;;;5056851;28;20409;-54
2021/05/26 08:20:27;;;;;;;5.70;2.20;;;13.80;99.90;;;;;;5056628;28;20401;-55
2021/05/26 08:22:53;;;;;;;3.73;1.93;;;13.80;99.90;;;;;;5058665;28;20167;-56
2021/05/26 08:25:19;;;;;;;3.50;2.10;;;13.90;99.90;;;;;;5065191;28;20474;-56
2021/05/26 08:27:44;;;;;;;3.00;1.60;;;13.70;99.90;;;;;;5055905;28;20188;-53
2021/05/26 08:30:10;;;;;;;3.30;1.70;;;13.90;99.90;;;;;;5056685;28;20244;-53
2021/05/26 08:32:36;;;;;;;4.60;1.77;;;13.80;99.90;;;;;;5057033;28;20652;-55
2021/05/26 08:35:02;;;;;;;3.10;2.33;;;13.50;99.90;;;;;;5056250;28;20167;-56
2021/05/26 08:37:28;;;;;;;3.70;2.00;;;13.60;99.90;;;;;;5056387;28;20559;-55
2021/05/26 08:39:53;;;;;;;7.37;2.97;;;13.80;99.90;;;;;;5056371;28;20436;-56
2021/05/26 08:42:19;;;;;;;3.90;1.90;;;13.60;99.90;;;;;;5056571;28;20173;-55
2021/05/26 08:44:46;;;;;;;6.00;2.77;;;13.90;99.90;;;;;;5055973;28;20194;-53
2021/05/26 08:47:18;;;;;;;3.30;1.60;;;14.00;99.90;;;;;;5057381;28;20431;-56
2021/05/26 08:49:46;;;;;;;4.13;2.00;;;14.00;99.90;;;;;;5075191;28;20424;-57
2021/05/26 08:52:14;;;;;;;6.87;2.60;;;14.00;99.90;;;;;;5070463;28;20434;-56
2021/05/26 08:54:47;;;;;;;4.90;2.17;;;13.70;99.90;;;;;;5076272;28;20405;-53
2021/05/26 08:57:14;;;;;;;3.00;2.07;;;13.90;99.90;;;;;;5075481;28;20425;-58
2021/05/26 08:59:40;;;;;;;2.67;2.17;;;14.20;99.90;;;;;;5075941;28;20415;-56
2021/05/26 09:02:10;;;;;;;3.30;2.20;;;14.30;99.90;;;;;;5076159;28;20425;-53
2021/05/26 09:04:37;;;;;;;4.40;2.60;;;13.90;99.90;;;;;;5096442;28;20517;-55
2021/05/26 09:07:10;;;;;;;3.70;2.23;;;13.90;99.90;;;;;;5096803;28;20430;-53
2021/05/26 09:10:01;;;;;;;4.13;2.43;;;14.10;99.90;;;;;;5096875;28;20407;-55
2021/05/26 09:12:37;;;;;;;3.60;1.77;;;14.10;99.90;;;;;;5095781;28;20410;-52
2021/05/26 09:15:20;;;;;;;3.70;2.07;;;13.90;99.90;;;;;;5059006;28;20390;-51
2021/05/26 09:17:57;;;;;;;4.60;2.13;;;13.80;99.90;;;;;;5055823;28;20427;-54
2021/05/26 09:20:31;;;;;;;3.37;1.70;;;14.00;99.90;;;;;;5055327;28;20498;-55
2021/05/26 09:23:01;;;;;;;3.17;2.23;;;13.80;99.90;;;;;;5055563;28;20902;-53
2021/05/26 09:25:28;;;;;;;4.37;2.20;;;13.80;99.90;;;;;;5055375;28;20446;-56
2021/05/26 09:28:13;;;;;;;3.47;1.83;;;14.00;99.90;;;;;;5057560;28;20778;-53
2021/05/26 09:30:39;;;;;;;5.00;2.03;;;13.70;99.90;;;;;;5055761;28;20914;-51
2021/05/26 09:33:32;;;;;;;6.63;2.33;;;13.60;99.90;;;;;;5055814;28;20506;-56
2021/05/26 09:36:21;;;;;;;5.43;2.00;;;13.80;99.90;;;;;;5052099;28;20219;-54
2021/05/26 09:39:02;;;;;;;9.87;2.50;;;13.60;99.90;;;;;;5055347;28;20825;-56
2021/05/26 09:41:29;;;;;;;2.50;1.83;;;13.80;99.90;;;;;;5055308;28;20417;-55
2021/05/26 09:44:00;;;;;;;2.80;1.63;;;13.80;99.90;;;;;;5054465;28;20532;-58
2021/05/26 09:46:32;;;;;;;4.60;1.80;;;13.70;99.90;;;;;;5055309;28;20450;-55
2021/05/26 09:49:05;;;;;;;3.40;1.90;;;13.90;99.90;;;;;;5055107;28;20424;-57
2021/05/26 09:51:33;;;;;;;3.30;1.67;;;13.80;99.90;;;;;;5054214;28;20445;-59
2021/05/26 09:54:10;;;;;;;3.10;1.53;;;13.80;99.90;;;;;;5055072;28;20403;-57
2021/05/26 09:56:36;;;;;;;3.97;1.20;;;13.80;99.90;;;;;;5055119;28;20455;-57
2021/05/26 09:59:04;;;;;;;2.03;1.50;;;13.90;99.90;;;;;;5054648;28;20467;-58
2021/05/26 10:01:34;;;;;;;3.50;1.17;;;13.70;99.90;;;;;;5054982;28;20455;-56
2021/05/26 10:04:00;;;;;;;2.00;1.13;;;13.80;99.90;;;;;;5053740;28;20455;-58
2021/05/26 10:06:28;;;;;;;1.90;1.40;;;13.80;99.90;;;;;;5054532;28;20433;-58
2021/05/26 10:08:58;;;;;;;1.83;1.50;;;14.00;99.90;;;;;;5054890;28;20446;-58
2021/05/26 10:11:34;;;;;;;3.00;1.60;;;14.20;99.90;;;;;;5054758;28;20416;-56
2021/05/26 10:14:11;;;;;;;2.70;1.30;;;14.60;99.90;;;;;;5054478;28;20395;-57
2021/05/26 10:16:41;;;;;;;2.50;1.33;;;14.60;99.90;;;;;;5054033;28;20511;-57
2021/05/26 10:19:07;;;;;;;2.30;1.20;;;14.60;99.90;;;;;;5053908;28;20784;-55
2021/05/26 10:21:34;;;;;;;1.57;1.17;;;14.50;99.90;;;;;;5054690;28;20417;-57
2021/05/26 10:24:05;;;;;;;3.83;1.30;;;14.40;99.90;;;;;;5054651;28;20463;-58
2021/05/26 10:26:55;;;;;;;2.00;1.10;;;14.80;99.90;;;;;;5054263;28;20956;-56
2021/05/26 10:29:27;;;;;;;1.90;1.30;;;14.70;99.90;;;;;;5054425;28;20387;-55
2021/05/26 10:31:53;;;;;;;2.70;1.10;;;14.60;99.90;;;;;;5053365;28;20431;-56
2021/05/26 10:34:18;;;;;;;1.23;1.10;;;14.60;99.90;;;;;;5054069;28;20897;-56
2021/05/26 10:36:55;;;;;;;4.23;1.73;;;14.80;99.90;;;;;;5053038;28;20471;-57
2021/05/26 10:39:31;;;;;;;1.83;0.90;;;14.80;99.90;;;;;;5054464;28;20185;-58
2021/05/26 10:41:57;;;;;;;1.37;1.10;;;14.80;99.90;;;;;;5054079;28;20402;-59
2021/05/26 10:44:58;;;;;;;2.00;1.30;;;14.70;99.90;;;;;;5054347;28;20529;-58
2021/05/26 10:47:39;;;;;;;3.03;1.93;;;14.70;99.90;;;;;;5054077;28;20432;-58
2021/05/26 10:50:14;;;;;;;3.90;1.70;;;14.50;99.90;;;;;;5053472;28;20407;-58
2021/05/26 10:52:55;;;;;;;1.83;1.40;;;14.20;99.90;;;;;;5054144;28;20391;-56
2021/05/26 10:55:49;;;;;;;1.50;1.07;;;14.60;99.90;;;;;;5054386;28;20407;-53
2021/05/26 10:58:17;;;;;;;1.17;1.00;;;14.90;99.90;;;;;;5053019;28;20884;-53
2021/05/26 11:00:49;;;;;;;2.07;1.10;;;14.60;99.90;;;;;;5053956;28;20417;-54
2021/05/26 11:03:23;;;;;;;3.80;1.87;;;15.00;99.90;;;;;;5053307;28;20415;-52
2021/05/26 11:05:50;;;;;;;1.47;1.07;;;14.90;99.90;;;;;;5053458;28;20394;-56
2021/05/26 11:08:41;;;;;;;2.30;1.30;;;14.90;99.90;;;;;;5053983;28;20403;-56
2021/05/26 11:11:23;;;;;;;2.00;1.30;;;14.80;99.90;;;;;;5054504;28;20373;-55
2021/05/26 11:14:04;;;;;;;3.03;1.20;;;14.70;99.90;;;;;;5053608;28;20400;-55
2021/05/26 11:16:44;;;;;;;1.43;0.90;;;14.90;99.90;;;;;;5058140;28;20516;-56
2021/05/26 11:19:21;;;;;;;2.17;1.03;;;15.30;99.90;;;;;;5066072;28;20434;-55
2021/05/26 11:22:02;;;;;;;4.47;1.43;;;15.60;99.90;;;;;;5074229;28;20386;-57
2021/05/26 11:24:33;;;;;;;2.63;1.10;;;15.70;99.90;;;;;;5073647;28;20546;-58
2021/05/26 11:27:13;;;;;;;1.80;1.03;;;15.30;99.90;;;;;;5072283;28;20454;-58
2021/05/26 11:29:39;;;;;;;1.63;1.03;;;15.70;99.90;;;;;;5073657;28;20733;-58
2021/05/26 11:32:04;;;;;;;1.97;1.40;;;15.80;99.90;;;;;;5073297;28;20456;-58
2021/05/26 11:34:30;;;;;;;1.80;1.30;;;15.60;99.90;;;;;;5058671;28;20177;-58
2021/05/26 11:36:56;;;;;;;2.90;1.20;;;15.50;99.90;;;;;;5053050;28;20517;-58
2021/05/26 11:39:30;;;;;;;4.70;1.10;;;15.40;99.90;;;;;;5053085;28;20628;-58
2021/05/26 11:42:10;;;;;;;3.33;1.00;;;15.20;99.90;;;;;;5053061;28;20272;-58
2021/05/26 11:44:42;;;;;;;2.07;1.17;;;15.10;99.90;;;;;;5052616;28;20450;-58
2021/05/26 11:47:08;;;;;;;2.20;1.30;;;15.20;99.90;;;;;;5053119;28;20424;-57
2021/05/26 11:49:36;;;;;;;2.47;1.20;;;15.10;99.90;;;;;;5052975;28;20926;-58
2021/05/26 11:52:07;;;;;;;1.50;1.10;;;15.10;99.90;;;;;;5052707;28;20436;-57
2021/05/26 11:54:35;;;;;;;1.30;1.07;;;15.10;99.90;;;;;;5053209;28;20453;-58
2021/05/26 11:57:04;;;;;;;1.60;1.00;;;15.20;99.90;;;;;;5053174;28;20455;-58
2021/05/26 11:59:31;;;;;;;2.40;1.17;;;15.40;99.90;;;;;;5052826;28;20422;-58
2021/05/26 12:01:57;;;;;;;1.57;1.10;;;15.60;99.90;;;;;;5053143;28;20415;-57
2021/05/26 12:04:24;;;;;;;2.00;1.00;;;15.80;99.90;;;;;;5053046;28;20532;-58
2021/05/26 12:06:51;;;;;;;1.70;1.00;;;15.70;99.90;;;;;;5053262;28;20424;-58
2021/05/26 12:09:29;;;;;;;1.97;0.83;;;15.40;99.90;;;;;;5052842;28;20408;-56
2021/05/26 12:11:56;;;;;;;1.40;0.80;;;15.60;99.90;;;;;;5053471;28;20495;-58
2021/05/26 12:14:30;;;;;;;1.00;0.80;;;16.10;99.90;;;;;;5052727;28;20445;-58
2021/05/26 12:16:58;;;;;;;1.63;1.20;;;16.40;99.90;;;;;;5052910;28;20425;-54
2021/05/26 12:19:31;;;;;;;1.27;0.90;;;16.20;99.90;;;;;;5054114;28;20814;-55
2021/05/26 12:22:29;;;;;;;2.10;1.10;;;16.60;99.90;;;;;;5053519;28;20879;-54
2021/05/26 12:25:00;;;;;;;1.10;1.00;;;16.60;99.90;;;;;;5042112;28;20462;-53
2021/05/26 12:27:37;;;;;;;1.90;1.13;;;16.70;99.90;;;;;;5053058;28;20423;-53
2021/05/26 12:30:24;;;;;;;1.70;0.97;;;16.50;99.90;;;;;;5052898;28;20407;-55
2021/05/26 12:33:12;;;;;;;2.73;1.10;;;16.70;99.90;;;;;;5052452;28;20420;-54
2021/05/26 12:35:38;;;;;;;1.40;0.90;;;17.20;99.90;;;;;;5052537;28;20481;-53
2021/05/26 12:38:17;;;;;;;1.33;0.90;;;17.50;99.90;;;;;;5052952;28;20499;-59
2021/05/26 12:40:43;;;;;;;3.50;1.27;;;17.90;99.90;;;;;;5056493;28;20165;-58
2021/05/26 12:43:26;;;;;;;2.47;1.10;;;18.30;99.90;;;;;;5055131;28;20409;-57
2021/05/26 12:45:53;;;;;;;1.27;1.07;;;17.90;99.90;;;;;;5057210;28;20397;-57
2021/05/26 12:48:19;;;;;;;2.07;1.23;;;17.90;99.90;;;;;;5038372;28;20409;-56
2021/05/26 12:50:45;;;;;;;1.27;1.13;;;17.90;99.90;;;;;;5056421;28;20412;-58
2021/05/26 12:53:13;;;;;;;2.73;1.30;;;17.70;99.90;;;;;;5056351;28;20401;-58